首页
METAR-TAF:

METAR-TAF

机场 :

明野, 日本

纬度: 34-32N, 经度: 136-41E, 海拔: 6米

当前天气观测

该预报发布于56分钟前的07:16 UTC
风速4节,风向东北
温度 14°C
湿度 88%
气压 997 hPa
能見度: 7000
少量云层高于500英尺
多云层高于1000英尺
多云层高于2000英尺
小雨

METAR: RJOE 010716Z 05004KT 7000 -RA FEW005 BKN010 BKN020 14/12 Q0997 RMK 1ST005 5ST010 6SC020 A2945 P/FR

时间: 17:12 (08:12 UTC)


TAF: 丢失

超过4000个机场的气象观测和天气预报(METAR&TAF报告)。

可查询的气象台以黄色和红色小点在地图上表示。

将鼠标移到小点上方,可查看气象台名称。

然后点击查看天气观测和预报。

如需切换地图:点击带黑十字的绿色按钮放大地图;点击带横线的绿色按钮缩小地图;或者点击绿色箭头查看邻近地区的地图。


METAR-TAF: